createdAt,value
2022-11-16T00:02:22.616Z,2.10
2022-11-16T00:04:50.764Z,2.20
2022-11-16T00:07:18.642Z,2.20
2022-11-16T00:09:46.981Z,1.70
2022-11-16T00:12:14.821Z,1.70
2022-11-16T00:14:42.646Z,1.80
2022-11-16T00:17:10.533Z,1.70
2022-11-16T00:19:38.425Z,1.80
2022-11-16T00:22:06.293Z,1.70
2022-11-16T00:24:34.240Z,1.50
2022-11-16T00:27:02.112Z,1.60
2022-11-16T00:29:30.128Z,1.30
2022-11-16T00:31:57.980Z,1.10
2022-11-16T00:34:25.968Z,1.60
2022-11-16T00:36:53.782Z,1.30
2022-11-16T00:39:21.846Z,0.90
2022-11-16T00:41:50.444Z,1.20
2022-11-16T00:44:18.886Z,1.20
2022-11-16T00:46:46.731Z,0.90
2022-11-16T00:49:14.798Z,1.00
2022-11-16T00:51:42.780Z,1.20
2022-11-16T00:54:10.809Z,1.10
2022-11-16T00:56:39.573Z,2.10
2022-11-16T00:59:07.953Z,0.90
2022-11-16T01:01:35.953Z,0.80
2022-11-16T01:04:04.111Z,1.50
2022-11-16T01:06:32.036Z,1.00
2022-11-16T01:09:01.816Z,0.90
2022-11-16T01:11:48.646Z,0.80
2022-11-16T01:14:16.838Z,1.10
2022-11-16T01:16:44.821Z,0.60
2022-11-16T01:19:12.591Z,1.20
2022-11-16T01:21:40.459Z,0.90
2022-11-16T01:24:08.565Z,0.90
2022-11-16T01:26:36.364Z,0.90
2022-11-16T01:29:04.993Z,1.00
2022-11-16T01:31:36.554Z,1.20
2022-11-16T01:34:04.916Z,0.70
2022-11-16T01:36:33.200Z,0.80
2022-11-16T01:39:05.097Z,0.90
2022-11-16T01:41:44.067Z,0.70
2022-11-16T01:44:14.745Z,0.70
2022-11-16T01:46:53.754Z,0.80
2022-11-16T01:49:25.490Z,0.80
2022-11-16T01:52:01.113Z,0.70
2022-11-16T01:54:34.885Z,0.50
2022-11-16T01:57:07.400Z,0.80
2022-11-16T01:59:52.751Z,1.30
2022-11-16T02:02:22.250Z,1.00
2022-11-16T02:04:52.669Z,0.70
2022-11-16T02:08:18.876Z,0.70
2022-11-16T02:11:46.138Z,1.00
2022-11-16T02:14:52.670Z,0.80
2022-11-16T02:17:30.293Z,0.80
2022-11-16T02:20:19.919Z,0.60
2022-11-16T02:23:02.818Z,0.70
2022-11-16T02:26:10.105Z,0.60
2022-11-16T02:29:14.221Z,0.90
2022-11-16T02:31:59.214Z,0.70
2022-11-16T02:34:37.006Z,0.70
2022-11-16T02:37:07.910Z,0.60
2022-11-16T02:39:40.034Z,0.50
2022-11-16T02:42:14.834Z,0.70
2022-11-16T02:44:48.163Z,0.60
2022-11-16T02:47:26.554Z,0.40
2022-11-16T02:50:03.178Z,0.70
2022-11-16T02:52:31.159Z,0.70
2022-11-16T02:54:59.085Z,0.80
2022-11-16T02:58:05.602Z,1.10
2022-11-16T03:00:52.058Z,0.80
2022-11-16T03:03:39.008Z,0.50
2022-11-16T03:06:20.813Z,0.80
2022-11-16T03:08:59.213Z,0.90
2022-11-16T03:14:46.450Z,0.60
2022-11-16T03:17:31.819Z,0.60
2022-11-16T03:20:20.720Z,1.00
2022-11-16T03:23:01.577Z,0.80
2022-11-16T03:25:37.836Z,0.50
2022-11-16T03:28:29.268Z,0.70
2022-11-16T03:31:12.783Z,0.60
2022-11-16T03:33:50.817Z,0.80
2022-11-16T03:36:25.819Z,0.60
2022-11-16T03:38:55.465Z,1.10
2022-11-16T03:41:28.473Z,0.50
2022-11-16T03:43:58.941Z,1.00
2022-11-16T03:46:26.926Z,1.40
2022-11-16T03:49:00.493Z,1.00
2022-11-16T03:51:31.205Z,0.70
2022-11-16T03:53:59.287Z,0.60
2022-11-16T03:56:27.145Z,0.70
2022-11-16T03:58:55.133Z,0.70
2022-11-16T04:01:23.201Z,0.70
2022-11-16T04:03:51.146Z,0.80
2022-11-16T04:06:38.535Z,0.50
2022-11-16T04:09:25.086Z,1.00
2022-11-16T04:12:11.468Z,0.60
2022-11-16T04:14:58.534Z,1.00
2022-11-16T04:17:45.678Z,0.80
2022-11-16T04:20:34.101Z,0.90
2022-11-16T04:23:33.487Z,0.90
2022-11-16T04:26:03.344Z,1.00
2022-11-16T04:28:34.642Z,0.80
2022-11-16T04:31:24.068Z,1.00
2022-11-16T04:34:20.813Z,1.50
2022-11-16T04:37:10.038Z,1.30
2022-11-16T04:39:38.595Z,1.20
2022-11-16T04:42:19.770Z,2.30
2022-11-16T04:45:07.329Z,1.20
2022-11-16T04:47:40.796Z,1.60
2022-11-16T04:50:08.817Z,1.20
2022-11-16T04:52:36.789Z,1.60
2022-11-16T04:55:05.778Z,1.60
2022-11-16T04:57:33.723Z,1.40
2022-11-16T05:00:01.933Z,1.10
2022-11-16T05:02:31.272Z,1.10
2022-11-16T05:04:59.432Z,1.10
2022-11-16T05:07:27.530Z,1.00
2022-11-16T05:10:01.803Z,1.10
2022-11-16T05:12:30.444Z,0.90
2022-11-16T05:15:01.334Z,1.30
2022-11-16T05:17:31.342Z,1.10
2022-11-16T05:20:18.979Z,0.90
2022-11-16T05:22:58.528Z,1.20
2022-11-16T05:25:35.300Z,0.80
2022-11-16T05:28:05.790Z,2.20
2022-11-16T05:30:35.033Z,1.30
2022-11-16T05:33:03.756Z,1.20
2022-11-16T05:35:33.630Z,0.80
2022-11-16T05:38:01.404Z,1.00
2022-11-16T05:40:29.660Z,1.10
2022-11-16T05:42:59.226Z,1.50
2022-11-16T05:45:28.672Z,1.70
2022-11-16T05:47:57.123Z,0.70
2022-11-16T05:50:25.012Z,0.80
2022-11-16T05:53:03.877Z,1.40
2022-11-16T05:55:31.671Z,0.90
2022-11-16T05:57:59.989Z,1.60
2022-11-16T06:00:27.980Z,1.00
2022-11-16T06:02:55.941Z,0.70
2022-11-16T06:05:27.730Z,1.10
2022-11-16T06:07:55.697Z,1.50
2022-11-16T06:10:23.815Z,0.90
2022-11-16T06:12:52.533Z,1.00
2022-11-16T06:15:20.373Z,0.90
2022-11-16T06:17:48.661Z,0.90
2022-11-16T06:20:17.233Z,1.70
2022-11-16T06:22:45.178Z,1.20
2022-11-16T06:25:13.218Z,1.10
2022-11-16T06:27:43.498Z,1.40
2022-11-16T06:30:12.308Z,1.10
2022-11-16T06:32:40.245Z,1.00
2022-11-16T06:35:08.815Z,1.80
2022-11-16T06:37:37.179Z,1.40
2022-11-16T06:40:06.188Z,1.30
2022-11-16T06:42:36.766Z,1.50
2022-11-16T06:45:05.688Z,1.30
2022-11-16T06:47:37.169Z,1.20
2022-11-16T06:50:05.958Z,1.80
2022-11-16T06:52:34.890Z,1.50
2022-11-16T06:55:03.695Z,1.30
2022-11-16T06:57:35.614Z,1.40
2022-11-16T07:00:05.372Z,1.70
2022-11-16T07:02:37.673Z,1.30
2022-11-16T07:05:07.279Z,1.50
2022-11-16T07:07:35.159Z,1.50
2022-11-16T07:10:04.106Z,1.20
2022-11-16T07:12:32.757Z,1.50
2022-11-16T07:15:01.012Z,1.70
2022-11-16T07:17:29.757Z,1.50
2022-11-16T07:19:58.435Z,1.70
2022-11-16T07:22:26.469Z,1.40
2022-11-16T07:24:54.494Z,2.10
2022-11-16T07:27:22.295Z,1.80
2022-11-16T07:29:51.500Z,1.50
2022-11-16T07:32:39.900Z,1.70
2022-11-16T07:35:37.317Z,1.40
2022-11-16T07:38:05.131Z,1.60
2022-11-16T07:40:33.058Z,1.80
2022-11-16T07:43:01.495Z,1.50
2022-11-16T07:45:53.237Z,1.30
2022-11-16T07:48:21.078Z,1.40
2022-11-16T07:51:13.551Z,1.10
2022-11-16T07:53:44.682Z,1.80
2022-11-16T07:56:13.302Z,1.40
2022-11-16T07:58:41.594Z,1.70
2022-11-16T08:01:14.463Z,1.70
2022-11-16T08:03:45.625Z,1.60
2022-11-16T08:06:20.529Z,1.40
2022-11-16T08:08:50.416Z,1.60
2022-11-16T08:11:21.718Z,1.50
2022-11-16T08:13:51.086Z,1.80
2022-11-16T08:16:22.353Z,1.70
2022-11-16T08:18:52.422Z,1.30
2022-11-16T08:21:20.357Z,2.60
2022-11-16T08:23:48.773Z,1.70
2022-11-16T08:26:22.007Z,2.30
2022-11-16T08:28:56.673Z,2.10
2022-11-16T08:31:29.964Z,1.80
2022-11-16T08:34:06.460Z,1.90
2022-11-16T08:36:34.718Z,1.80
2022-11-16T08:39:02.797Z,1.90
2022-11-16T08:41:32.375Z,1.70
2022-11-16T08:44:01.180Z,1.60
2022-11-16T08:46:29.453Z,2.10
2022-11-16T08:49:04.309Z,1.30
2022-11-16T08:51:32.089Z,1.50
2022-11-16T08:54:05.273Z,1.60
2022-11-16T08:56:33.773Z,1.50
2022-11-16T08:59:01.582Z,1.60
2022-11-16T09:01:31.412Z,1.40
2022-11-16T09:04:00.435Z,2.10
2022-11-16T09:06:28.396Z,2.40
2022-11-16T09:08:56.625Z,2.20
2022-11-16T09:11:25.727Z,2.10
2022-11-16T09:13:56.066Z,1.70
2022-11-16T09:16:24.127Z,1.30
2022-11-16T09:18:52.410Z,1.90
2022-11-16T09:21:23.122Z,1.60
2022-11-16T09:23:51.985Z,2.10
2022-11-16T09:26:22.874Z,1.90
2022-11-16T09:29:00.709Z,2.00
2022-11-16T09:31:34.107Z,1.60
2022-11-16T09:34:02.869Z,2.10
2022-11-16T09:36:31.240Z,3.50
2022-11-16T09:42:15.422Z,2.40
2022-11-16T09:44:59.883Z,2.60
2022-11-16T09:47:54.001Z,2.80
2022-11-16T09:50:37.253Z,2.90
2022-11-16T09:53:26.378Z,2.40
2022-11-16T09:56:01.302Z,2.60
2022-11-16T09:58:55.607Z,2.20
2022-11-16T10:01:52.596Z,19.30
2022-11-16T10:04:40.510Z,2.70
2022-11-16T10:07:17.678Z,1.60
2022-11-16T10:09:46.945Z,1.50
2022-11-16T10:12:51.836Z,1.40
2022-11-16T10:15:53.437Z,1.60
2022-11-16T10:18:57.234Z,1.20
2022-11-16T10:21:51.824Z,1.00
2022-11-16T10:24:50.980Z,1.20
2022-11-16T10:27:38.218Z,1.30
2022-11-16T10:30:14.794Z,1.00
2022-11-16T10:33:00.434Z,1.20
2022-11-16T10:35:37.099Z,0.90
2022-11-16T10:38:18.488Z,0.80
2022-11-16T10:40:54.772Z,1.00
2022-11-16T10:43:31.599Z,0.90
2022-11-16T10:46:39.654Z,1.20
2022-11-16T10:49:27.185Z,1.50
2022-11-16T10:51:55.233Z,1.30
2022-11-16T10:54:22.969Z,1.60
2022-11-16T10:57:05.997Z,0.80
2022-11-16T10:59:47.312Z,1.40
2022-11-16T11:02:34.647Z,1.40
2022-11-16T11:05:20.723Z,1.60
2022-11-16T11:08:04.728Z,1.80
2022-11-16T11:10:38.668Z,1.80
2022-11-16T11:13:12.283Z,2.10
2022-11-16T11:15:43.027Z,2.30
2022-11-16T11:18:31.518Z,2.00
2022-11-16T11:21:19.335Z,1.30
2022-11-16T11:23:54.215Z,2.70
2022-11-16T11:26:38.598Z,1.20
2022-11-16T11:29:32.017Z,1.70
2022-11-16T11:32:22.616Z,2.10
2022-11-16T11:34:57.583Z,1.60
2022-11-16T11:37:32.456Z,1.30
2022-11-16T11:40:21.365Z,1.30
2022-11-16T11:43:04.601Z,1.20
2022-11-16T11:45:41.328Z,3.50
2022-11-16T11:48:34.198Z,1.60
2022-11-16T11:51:22.609Z,1.80
2022-11-16T11:53:56.988Z,1.40
2022-11-16T11:56:28.340Z,1.20
2022-11-16T12:02:10.863Z,1.60
2022-11-16T12:05:07.955Z,3.50
2022-11-16T12:08:14.870Z,1.90
2022-11-16T12:11:21.372Z,1.70
2022-11-16T12:13:54.263Z,1.90
2022-11-16T12:16:48.093Z,1.20
2022-11-16T12:19:45.200Z,1.30
2022-11-16T12:22:27.126Z,1.20
2022-11-16T12:25:37.002Z,1.20
2022-11-16T12:28:26.837Z,1.40
2022-11-16T12:30:57.798Z,1.30
2022-11-16T12:33:56.079Z,1.20
2022-11-16T12:36:48.835Z,1.20
2022-11-16T12:39:20.508Z,1.40
2022-11-16T12:42:02.205Z,1.60
2022-11-16T12:44:57.137Z,1.30
2022-11-16T12:47:48.449Z,1.10
2022-11-16T12:50:37.291Z,1.00
2022-11-16T12:53:39.310Z,1.50
2022-11-16T12:56:21.513Z,1.40
2022-11-16T12:59:01.006Z,1.70
2022-11-16T13:01:54.050Z,1.10
2022-11-16T13:04:35.335Z,1.30
2022-11-16T13:07:17.888Z,1.10
2022-11-16T13:09:55.820Z,1.90
2022-11-16T13:12:26.561Z,1.50
2022-11-16T13:14:58.559Z,2.20
2022-11-16T13:17:34.640Z,1.50
2022-11-16T13:20:35.431Z,1.10
2022-11-16T13:23:33.530Z,1.40
2022-11-16T13:26:10.394Z,1.70
2022-11-16T13:29:45.724Z,5.70
2022-11-16T13:32:47.221Z,1.90
2022-11-16T13:35:18.446Z,1.70
2022-11-16T13:40:33.134Z,1.80
2022-11-16T13:43:06.080Z,2.00
2022-11-16T13:45:40.837Z,1.90
2022-11-16T13:48:25.086Z,1.50
2022-11-16T13:51:00.523Z,2.00
2022-11-16T13:56:51.591Z,1.80
2022-11-16T13:59:28.333Z,1.30
2022-11-16T14:02:00.681Z,1.70
2022-11-16T14:04:54.897Z,1.60
2022-11-16T14:07:37.557Z,2.10
2022-11-16T14:10:06.213Z,1.60
2022-11-16T14:12:54.635Z,1.40
2022-11-16T14:15:32.652Z,1.70
2022-11-16T14:18:12.014Z,1.70
2022-11-16T14:20:52.890Z,1.70
2022-11-16T14:23:45.785Z,1.30
2022-11-16T14:26:42.271Z,2.00
2022-11-16T14:29:20.584Z,1.70
2022-11-16T14:31:57.648Z,1.60
2022-11-16T14:34:42.186Z,1.80
2022-11-16T14:37:22.181Z,2.20
2022-11-16T14:40:01.905Z,1.50
2022-11-16T14:42:48.421Z,1.80
2022-11-16T14:45:29.415Z,2.00
2022-11-16T14:48:17.733Z,1.40
2022-11-16T14:51:26.323Z,1.70
2022-11-16T14:54:00.879Z,1.90
2022-11-16T14:56:28.646Z,2.00
2022-11-16T14:59:02.266Z,2.30
2022-11-16T15:01:38.991Z,1.70
2022-11-16T15:04:11.196Z,1.90
2022-11-16T15:06:47.148Z,1.70
2022-11-16T15:09:26.007Z,1.80
2022-11-16T15:12:13.957Z,1.60
2022-11-16T15:14:50.766Z,1.90
2022-11-16T15:17:30.097Z,2.40
2022-11-16T15:20:14.122Z,1.70
2022-11-16T15:22:47.435Z,1.80
2022-11-16T15:25:41.732Z,1.80
2022-11-16T15:28:21.037Z,1.50
2022-11-16T15:30:54.667Z,1.90
2022-11-16T15:33:33.861Z,2.00
2022-11-16T15:36:20.992Z,1.90
2022-11-16T15:38:54.453Z,2.00
2022-11-16T15:41:25.411Z,1.70
2022-11-16T15:44:13.485Z,2.60
2022-11-16T15:46:47.685Z,2.10
2022-11-16T15:49:37.988Z,2.40
2022-11-16T15:52:06.452Z,2.10
2022-11-16T15:54:54.923Z,2.10
2022-11-16T15:57:24.556Z,2.40
2022-11-16T15:59:59.794Z,1.60
2022-11-16T16:02:30.582Z,2.20
2022-11-16T16:04:58.487Z,2.10
2022-11-16T16:07:43.965Z,3.60
2022-11-16T16:10:20.774Z,2.30
2022-11-16T16:12:54.888Z,3.90
2022-11-16T16:15:29.992Z,3.90
2022-11-16T16:17:58.997Z,5.90
2022-11-16T16:20:31.878Z,3.20
2022-11-16T16:23:15.844Z,2.90
2022-11-16T16:25:50.142Z,2.50
2022-11-16T16:28:18.568Z,2.70
2022-11-16T16:30:46.443Z,2.30
2022-11-16T16:33:19.690Z,2.00
2022-11-16T16:35:49.814Z,2.80
2022-11-16T16:38:17.590Z,3.30
2022-11-16T16:40:45.382Z,2.40
2022-11-16T16:43:13.201Z,5.00
2022-11-16T16:45:43.824Z,2.70
2022-11-16T16:48:12.664Z,2.10
2022-11-16T16:50:40.699Z,2.20
2022-11-16T16:53:12.793Z,2.30
2022-11-16T16:55:42.828Z,3.40
2022-11-16T16:58:13.317Z,2.50
2022-11-16T17:00:41.992Z,2.30
2022-11-16T17:03:10.323Z,2.80
2022-11-16T17:05:38.093Z,2.60
2022-11-16T17:08:06.334Z,2.30
2022-11-16T17:10:34.417Z,2.90
2022-11-16T17:13:03.165Z,2.60
2022-11-16T17:15:31.155Z,3.30
2022-11-16T17:17:59.876Z,3.60
2022-11-16T17:20:27.893Z,3.80
2022-11-16T17:22:55.862Z,3.40
2022-11-16T17:25:23.782Z,3.10
2022-11-16T17:27:51.860Z,3.50
2022-11-16T17:30:19.895Z,3.30
2022-11-16T17:32:47.729Z,2.40
2022-11-16T17:35:15.987Z,3.90
2022-11-16T17:37:43.881Z,8.40
2022-11-16T17:40:12.488Z,12.00
2022-11-16T17:42:40.370Z,12.00
2022-11-16T17:45:08.773Z,10.40
2022-11-16T17:47:36.551Z,8.70
2022-11-16T17:50:04.715Z,7.80
2022-11-16T17:52:32.463Z,4.70
2022-11-16T17:55:00.287Z,4.80
2022-11-16T17:57:28.628Z,5.10
2022-11-16T17:59:56.452Z,5.50
2022-11-16T18:02:24.229Z,6.10
2022-11-16T18:04:52.119Z,6.60
2022-11-16T18:07:20.061Z,5.20
2022-11-16T18:09:47.949Z,4.50
2022-11-16T18:12:15.716Z,4.30
2022-11-16T18:14:59.854Z,3.70
2022-11-16T18:17:31.458Z,4.00
2022-11-16T18:19:59.227Z,2.60
2022-11-16T18:22:26.953Z,3.30
2022-11-16T18:24:54.673Z,2.30
2022-11-16T18:27:22.554Z,2.70
2022-11-16T18:29:50.717Z,2.90
2022-11-16T18:32:19.873Z,3.00
2022-11-16T18:34:48.459Z,3.50
2022-11-16T18:37:16.292Z,3.20
2022-11-16T18:39:44.585Z,2.90
2022-11-16T18:42:12.570Z,3.80
2022-11-16T18:44:40.298Z,3.30
2022-11-16T18:47:08.135Z,4.20
2022-11-16T18:49:36.064Z,4.60
2022-11-16T18:52:04.095Z,4.40
2022-11-16T18:54:31.877Z,3.90
2022-11-16T18:56:59.758Z,3.40
2022-11-16T18:59:27.672Z,4.10
2022-11-16T19:01:55.564Z,3.50
2022-11-16T19:04:23.801Z,4.00
2022-11-16T19:06:52.590Z,4.50
2022-11-16T19:09:22.975Z,4.60
2022-11-16T19:11:52.776Z,3.10
2022-11-16T19:14:21.627Z,2.60
2022-11-16T19:16:55.710Z,3.00
2022-11-16T19:19:27.697Z,4.00
2022-11-16T19:21:56.996Z,3.40
2022-11-16T19:24:24.788Z,3.90
2022-11-16T19:26:52.727Z,4.10
2022-11-16T19:29:20.495Z,4.50
2022-11-16T19:31:48.465Z,3.00
2022-11-16T19:34:16.260Z,3.30
2022-11-16T19:36:44.006Z,2.90
2022-11-16T19:39:11.833Z,3.50
2022-11-16T19:41:39.650Z,2.80
2022-11-16T19:44:07.432Z,3.20
2022-11-16T19:46:36.575Z,2.60
2022-11-16T19:49:05.005Z,2.60
2022-11-16T19:51:33.985Z,2.60
2022-11-16T19:54:02.886Z,2.30
2022-11-16T19:56:31.377Z,3.00
2022-11-16T19:59:00.534Z,2.40
2022-11-16T20:01:29.398Z,2.10
2022-11-16T20:04:02.310Z,1.60
2022-11-16T20:06:34.083Z,2.30
2022-11-16T20:09:08.902Z,1.80
2022-11-16T20:11:40.786Z,2.70
2022-11-16T20:14:11.945Z,1.50
2022-11-16T20:16:42.997Z,2.40
2022-11-16T20:19:11.560Z,1.60
2022-11-16T20:21:42.633Z,1.90
2022-11-16T20:24:18.000Z,1.70
2022-11-16T20:26:49.264Z,1.50
2022-11-16T20:29:19.523Z,2.10
2022-11-16T20:31:47.800Z,1.70
2022-11-16T20:34:17.733Z,1.80
2022-11-16T20:36:47.756Z,2.20
2022-11-16T20:39:20.605Z,1.90
2022-11-16T20:41:49.118Z,1.60
2022-11-16T20:44:21.167Z,1.60
2022-11-16T20:46:52.199Z,1.20
2022-11-16T20:49:20.375Z,1.00
2022-11-16T20:51:49.640Z,1.10
2022-11-16T20:54:17.627Z,1.20
2022-11-16T20:56:45.511Z,1.20
2022-11-16T20:59:13.510Z,1.40
2022-11-16T21:01:44.809Z,1.50
2022-11-16T21:04:12.842Z,1.60
2022-11-16T21:06:40.653Z,1.20
2022-11-16T21:09:12.350Z,1.30
2022-11-16T21:11:58.834Z,1.20
2022-11-16T21:14:26.769Z,1.20
2022-11-16T21:16:54.672Z,1.20
2022-11-16T21:19:22.526Z,1.10
2022-11-16T21:21:50.383Z,1.20
2022-11-16T21:24:18.297Z,0.90
2022-11-16T21:26:46.219Z,1.10
2022-11-16T21:29:14.039Z,1.20
2022-11-16T21:31:41.888Z,1.60
2022-11-16T21:34:09.719Z,0.90
2022-11-16T21:36:37.487Z,0.90
2022-11-16T21:39:05.921Z,1.20
2022-11-16T21:41:34.547Z,0.90
2022-11-16T21:44:02.330Z,0.80
2022-11-16T21:46:30.275Z,1.20
2022-11-16T21:48:58.129Z,1.00
2022-11-16T21:51:27.550Z,0.90
2022-11-16T21:53:55.591Z,1.00
2022-11-16T21:56:26.293Z,1.30
2022-11-16T21:58:54.459Z,1.00
2022-11-16T22:01:24.015Z,1.10
2022-11-16T22:04:10.896Z,1.00
2022-11-16T22:06:57.722Z,1.10
2022-11-16T22:09:25.541Z,1.30
2022-11-16T22:11:53.673Z,1.20
2022-11-16T22:14:21.531Z,1.20
2022-11-16T22:16:49.357Z,1.10
2022-11-16T22:19:17.297Z,1.30
2022-11-16T22:21:45.189Z,0.90
2022-11-16T22:24:12.973Z,1.30
2022-11-16T22:26:41.087Z,1.30
2022-11-16T22:29:08.979Z,1.40
2022-11-16T22:31:36.929Z,1.50
2022-11-16T22:34:04.774Z,2.00
2022-11-16T22:36:32.498Z,1.30
2022-11-16T22:39:00.958Z,1.30
2022-11-16T22:41:29.025Z,1.60
2022-11-16T22:43:56.805Z,1.40
2022-11-16T22:46:24.574Z,1.80
2022-11-16T22:48:52.366Z,2.60
2022-11-16T22:51:30.885Z,4.10
2022-11-16T22:54:04.927Z,2.70
2022-11-16T22:56:33.871Z,1.70
2022-11-16T22:59:02.689Z,2.20
2022-11-16T23:01:30.497Z,1.90
2022-11-16T23:03:58.969Z,2.50
2022-11-16T23:06:26.865Z,2.10
2022-11-16T23:08:55.028Z,2.00
2022-11-16T23:11:44.211Z,2.00
2022-11-16T23:14:34.846Z,1.70
2022-11-16T23:17:04.631Z,1.80
2022-11-16T23:19:53.094Z,1.70
2022-11-16T23:22:40.641Z,1.90
2022-11-16T23:25:30.245Z,1.90
2022-11-16T23:28:12.901Z,2.10
2022-11-16T23:30:41.201Z,1.90
2022-11-16T23:33:10.536Z,1.80
2022-11-16T23:35:38.375Z,1.80
2022-11-16T23:38:07.996Z,2.20
2022-11-16T23:40:39.043Z,2.00
2022-11-16T23:43:28.912Z,1.70
2022-11-16T23:45:56.866Z,2.10
2022-11-16T23:48:24.749Z,2.00
2022-11-16T23:50:52.596Z,2.70
2022-11-16T23:53:20.424Z,2.50
2022-11-16T23:55:48.336Z,2.40
2022-11-16T23:58:16.738Z,2.20
